Time;durP1;ratioP1;P1;durP2;ratioP2;P2;SDS_P1;SDS_P2;PMS_P1;PMS_P2;Temp;Humidity;BMP_temperature;BMP_pressure;BME280_temperature;BME280_humidity;BME280_pressure;Samples;Min_cycle;Max_cycle;Signal;HPM_P1;HPM_P2
2023/01/22 00:01:14;;;;;;;46.37;18.70;;;;;;;4.46;57.94;103576.59;5082825;28;20287;-72
2023/01/22 00:03:40;;;;;;;40.20;18.67;;;;;;;4.38;57.39;103573.56;5052035;28;20025;-73
2023/01/22 00:06:06;;;;;;;47.77;19.03;;;;;;;4.56;57.35;103575.44;5051309;28;20299;-72
2023/01/22 00:08:32;;;;;;;40.57;17.63;;;;;;;4.89;56.42;103565.25;5051543;28;20082;-72
2023/01/22 00:10:57;;;;;;;44.77;18.77;;;;;;;4.61;56.34;103565.38;5048600;28;20067;-72
2023/01/22 00:13:24;;;;;;;44.53;18.73;;;;;;;4.63;56.73;103564.66;5031026;28;20280;-73
2023/01/22 00:15:50;;;;;;;43.47;18.47;;;;;;;4.43;57.08;103560.00;5032832;28;20049;-72
2023/01/22 00:18:16;;;;;;;42.40;17.63;;;;;;;4.53;57.18;103564.91;5031794;28;20311;-72
2023/01/22 00:20:48;;;;;;;46.87;20.10;;;;;;;5.15;54.76;103553.78;5032068;28;20061;-71
2023/01/22 00:23:14;;;;;;;45.37;19.30;;;;;;;4.91;56.00;103561.94;5050512;28;20029;-72
2023/01/22 00:25:40;;;;;;;51.40;19.93;;;;;;;4.98;54.75;103555.41;5050469;28;20397;-71
2023/01/22 00:28:05;;;;;;;47.63;20.23;;;;;;;4.98;55.25;103557.13;5051044;28;20013;-71
2023/01/22 00:30:31;;;;;;;49.43;19.60;;;;;;;4.92;55.51;103553.34;5045840;28;20033;-71
2023/01/22 00:32:56;;;;;;;46.00;19.67;;;;;;;4.95;54.92;103541.41;5033054;28;20033;-71
2023/01/22 00:35:22;;;;;;;50.50;19.77;;;;;;;4.59;57.33;103549.75;5033757;28;20065;-71
2023/01/22 00:37:47;;;;;;;43.97;19.60;;;;;;;4.59;56.99;103555.81;5050888;28;20445;-71
2023/01/22 00:40:14;;;;;;;47.87;20.47;;;;;;;4.81;57.17;103548.34;5052266;28;20029;-71
2023/01/22 00:42:39;;;;;;;49.03;20.23;;;;;;;4.72;57.26;103549.63;5051572;28;20025;-71
2023/01/22 00:45:06;;;;;;;51.93;20.80;;;;;;;4.67;58.49;103544.97;5038534;28;20290;-71
2023/01/22 00:47:31;;;;;;;44.90;19.73;;;;;;;4.81;58.80;103553.53;5051578;28;20377;-71
2023/01/22 00:49:56;;;;;;;47.20;19.73;;;;;;;5.47;57.73;103554.66;5050798;28;20330;-71
2023/01/22 00:52:22;;;;;;;48.50;20.23;;;;;;;5.20;57.23;103554.03;5049705;28;20090;-71
2023/01/22 00:54:48;;;;;;;50.27;20.57;;;;;;;4.93;58.98;103552.56;5050530;28;20024;-71
2023/01/22 00:57:14;;;;;;;52.13;20.80;;;;;;;5.25;57.68;103556.06;5050913;28;20027;-71
2023/01/22 00:59:39;;;;;;;47.83;22.10;;;;;;;5.52;57.14;103544.50;5036864;28;20029;-70
2023/01/22 01:02:05;;;;;;;49.10;20.57;;;;;;;5.54;56.93;103548.97;5029971;28;20473;-70
2023/01/22 01:04:31;;;;;;;42.27;19.87;;;;;;;5.78;55.78;103540.72;5030759;28;20385;-70
2023/01/22 01:06:57;;;;;;;45.47;19.60;;;;;;;6.16;55.68;103539.28;5078031;28;20041;-71
2023/01/22 01:09:22;;;;;;;47.67;20.07;;;;;;;6.12;55.77;103532.13;5047441;28;20507;-71
2023/01/22 01:11:48;;;;;;;49.57;19.80;;;;;;;6.04;56.07;103528.25;5038566;28;20033;-70
2023/01/22 01:14:13;;;;;;;46.57;19.37;;;;;;;5.95;56.54;103528.66;5051058;28;20033;-70
2023/01/22 01:16:38;;;;;;;45.73;19.33;;;;;;;6.00;57.02;103516.81;5049302;28;20025;-70
2023/01/22 01:19:06;;;;;;;41.43;19.47;;;;;;;6.26;56.09;103525.97;5050823;28;20127;-71
2023/01/22 01:21:32;;;;;;;38.13;18.97;;;;;;;6.04;56.78;103523.06;5048727;28;20384;-71
2023/01/22 01:23:58;;;;;;;47.57;19.83;;;;;;;6.51;55.67;103524.59;5034619;28;20037;-70
2023/01/22 01:26:24;;;;;;;48.07;20.73;;;;;;;6.40;54.69;103528.34;5036190;28;20057;-70
2023/01/22 01:28:53;;;;;;;40.20;17.93;;;;;;;6.49;55.44;103528.81;5045849;28;20106;-70
2023/01/22 01:31:20;;;;;;;36.03;17.30;;;;;;;6.03;56.08;103522.19;5047185;28;20040;-70
2023/01/22 01:33:46;;;;;;;37.97;17.47;;;;;;;6.67;55.99;103520.16;5030437;28;20033;-70
2023/01/22 01:36:20;;;;;;;43.40;19.77;;;;;;;6.90;55.17;103527.34;5036349;28;20333;-70
2023/01/22 01:38:46;;;;;;;40.47;17.57;;;;;;;6.88;54.29;103523.81;5044586;28;20029;-70
2023/01/22 01:41:15;;;;;;;35.63;17.50;;;;;;;6.94;53.64;103512.81;5043081;28;20057;-70
2023/01/22 01:43:41;;;;;;;37.57;17.27;;;;;;;7.06;53.78;103512.47;5049377;28;20032;-70
2023/01/22 01:46:23;;;;;;;33.47;16.10;;;;;;;6.90;54.72;103509.16;5050167;28;20029;-70
2023/01/22 01:48:54;;;;;;;22.90;12.45;;;;;;;6.81;54.31;103503.50;5049993;28;20123;-70
2023/01/22 01:51:32;;;;;;;31.50;15.90;;;;;;;7.20;54.38;103501.03;5047089;28;20016;-70
2023/01/22 01:54:01;;;;;;;30.47;15.07;;;;;;;7.14;54.86;103492.91;5031352;28;20100;-70
2023/01/22 01:56:30;;;;;;;31.57;15.13;;;;;;;7.20;54.16;103490.63;5047698;28;20025;-70
2023/01/22 01:59:06;;;;;;;31.17;15.33;;;;;;;7.13;54.74;103489.44;5049160;28;20124;-70
2023/01/22 02:01:32;;;;;;;29.03;15.50;;;;;;;7.14;54.08;103495.50;5050502;28;20470;-70
2023/01/22 02:03:58;;;;;;;32.80;14.97;;;;;;;7.38;53.29;103494.88;5049870;28;20119;-70
2023/01/22 02:06:25;;;;;;;30.10;14.73;;;;;;;7.63;53.08;103491.66;5047028;28;20037;-70
2023/01/22 02:08:52;;;;;;;29.13;14.50;;;;;;;7.74;52.63;103484.34;5049278;28;20507;-70
2023/01/22 02:11:19;;;;;;;27.30;14.17;;;;;;;7.60;52.77;103483.72;5048836;28;20039;-70
2023/01/22 02:13:53;;;;;;;35.03;15.17;;;;;;;7.37;53.51;103490.50;5050485;28;20028;-70
2023/01/22 02:16:18;;;;;;;33.97;14.50;;;;;;;7.17;54.11;103484.38;5043960;28;20112;-69
2023/01/22 02:18:44;;;;;;;27.00;13.43;;;;;;;7.03;54.64;103486.31;5029485;28;20124;-69
2023/01/22 02:21:29;;;;;;;27.00;13.93;;;;;;;7.15;55.03;103479.09;5043210;28;20108;-69
2023/01/22 02:23:55;;;;;;;26.03;13.60;;;;;;;6.85;55.92;103489.81;5048371;28;20032;-69
2023/01/22 02:26:20;;;;;;;24.67;12.73;;;;;;;7.22;55.38;103478.56;5038512;28;20017;-70
2023/01/22 02:28:45;;;;;;;26.50;13.07;;;;;;;7.70;52.76;103470.28;5049550;28;20024;-69
2023/01/22 02:31:14;;;;;;;22.77;12.17;;;;;;;7.61;52.77;103478.59;5048531;28;20029;-70
2023/01/22 02:33:39;;;;;;;20.47;11.73;;;;;;;7.55;52.94;103462.69;5048472;28;20420;-70
2023/01/22 02:36:05;;;;;;;23.23;12.67;;;;;;;7.92;52.64;103464.28;5047239;28;20025;-70
2023/01/22 02:38:31;;;;;;;22.47;11.83;;;;;;;7.75;53.07;103470.50;5032119;28;20107;-69
2023/01/22 02:40:56;;;;;;;22.13;12.23;;;;;;;7.39;53.99;103470.63;5046815;28;20087;-70
2023/01/22 02:43:21;;;;;;;20.87;12.27;;;;;;;7.39;53.90;103470.63;5031620;28;20087;-69
2023/01/22 02:45:47;;;;;;;24.87;12.27;;;;;;;7.24;54.66;103476.94;5029324;28;20446;-69
2023/01/22 02:48:12;;;;;;;21.43;11.43;;;;;;;7.07;56.12;103467.44;5028170;28;20022;-69
2023/01/22 02:50:38;;;;;;;22.93;12.33;;;;;;;7.23;55.08;103469.94;5045200;28;20052;-70
2023/01/22 02:53:03;;;;;;;23.90;11.73;;;;;;;7.56;53.92;103464.47;5048020;28;20052;-69
2023/01/22 02:55:29;;;;;;;21.23;12.23;;;;;;;7.66;54.44;103470.97;5047356;28;20029;-69
2023/01/22 02:57:54;;;;;;;23.83;11.90;;;;;;;7.32;54.45;103469.44;5047493;28;20128;-69
2023/01/22 03:00:20;;;;;;;23.27;11.93;;;;;;;7.60;53.65;103461.19;5047985;28;20366;-69
2023/01/22 03:02:45;;;;;;;18.53;11.17;;;;;;;7.32;54.63;103468.56;5077365;28;20370;-69
2023/01/22 03:05:11;;;;;;;20.67;11.40;;;;;;;7.59;54.47;103464.59;5047300;28;20098;-69
2023/01/22 03:07:43;;;;;;;24.83;10.83;;;;;;;7.71;53.54;103469.47;5038081;28;20033;-69
2023/01/22 03:10:15;;;;;;;19.98;10.88;;;;;;;7.36;55.56;103452.28;5032035;28;20395;-69
2023/01/22 03:23:37;;;;;;;18.83;10.07;;;;;;;6.48;57.59;103464.66;5034082;28;20176;-69
2023/01/22 03:26:03;;;;;;;21.30;11.67;;;;;;;7.78;55.12;103452.41;5035196;28;21286;-69
2023/01/22 03:28:28;;;;;;;20.47;10.80;;;;;;;7.90;54.10;103455.53;5050330;28;20048;-69
2023/01/22 03:30:54;;;;;;;21.27;12.23;;;;;;;7.33;54.74;103449.53;5046911;28;20420;-69
2023/01/22 03:33:20;;;;;;;21.73;11.43;;;;;;;7.56;54.82;103447.97;5052295;28;20044;-69
2023/01/22 03:35:45;;;;;;;22.23;11.90;;;;;;;7.39;54.87;103439.41;5051885;28;20024;-69
2023/01/22 03:38:10;;;;;;;23.13;11.90;;;;;;;7.51;54.50;103439.94;5051186;28;20116;-69
2023/01/22 03:40:36;;;;;;;18.07;10.27;;;;;;;8.22;53.42;103448.19;5042662;28;20078;-69
2023/01/22 03:43:01;;;;;;;20.20;11.27;;;;;;;7.28;53.83;103437.22;5051710;28;20052;-69
2023/01/22 03:45:27;;;;;;;19.73;10.20;;;;;;;7.35;54.25;103442.69;5045013;28;20493;-69
2023/01/22 03:47:53;;;;;;;23.10;11.57;;;;;;;6.89;54.98;103442.34;5046287;28;20041;-69
2023/01/22 03:50:18;;;;;;;21.73;11.00;;;;;;;7.34;54.59;103435.72;5050218;28;20052;-69
2023/01/22 03:52:43;;;;;;;18.23;10.43;;;;;;;7.06;56.13;103440.56;5040913;28;20033;-69
2023/01/22 03:55:09;;;;;;;22.80;10.73;;;;;;;7.18;56.29;103439.34;5034176;28;20034;-69
2023/01/22 03:57:34;;;;;;;23.90;10.37;;;;;;;7.62;53.78;103441.34;5033760;28;20034;-69
2023/01/22 04:00:00;;;;;;;20.30;11.30;;;;;;;7.67;53.47;103436.31;5051212;28;20024;-68
2023/01/22 04:02:27;;;;;;;18.47;9.70;;;;;;;7.61;53.71;103442.16;5034450;28;20036;-69
2023/01/22 04:04:52;;;;;;;21.50;10.60;;;;;;;7.73;53.19;103433.97;5030907;28;20386;-69
2023/01/22 04:07:18;;;;;;;18.97;10.27;;;;;;;7.98;52.88;103433.31;5047083;28;20095;-69
2023/01/22 04:09:43;;;;;;;21.83;11.07;;;;;;;7.49;53.68;103436.41;5033484;28;20036;-68
2023/01/22 04:12:08;;;;;;;21.90;11.07;;;;;;;7.44;53.26;103428.38;5035333;28;20034;-70
2023/01/22 04:14:34;;;;;;;24.10;11.53;;;;;;;7.27;54.39;103435.44;5051471;28;20053;-69
2023/01/22 04:16:59;;;;;;;23.13;11.33;;;;;;;7.80;53.09;103433.44;5051358;28;20389;-69
2023/01/22 04:19:25;;;;;;;20.30;11.23;;;;;;;7.11;54.74;103436.44;5049657;28;20037;-69
2023/01/22 04:21:50;;;;;;;20.00;10.20;;;;;;;7.33;54.15;103436.53;5039454;28;20500;-69
2023/01/22 04:24:15;;;;;;;20.70;10.67;;;;;;;7.80;53.49;103442.94;5031615;28;20052;-69
2023/01/22 04:26:41;;;;;;;21.03;10.07;;;;;;;7.92;52.78;103437.38;5030685;28;20057;-69
2023/01/22 04:29:08;;;;;;;21.77;10.73;;;;;;;8.09;52.36;103435.47;5033029;28;20037;-69
2023/01/22 04:31:33;;;;;;;19.90;10.33;;;;;;;8.22;51.70;103435.16;5047889;28;20500;-69
2023/01/22 04:33:58;;;;;;;19.87;10.80;;;;;;;8.39;52.12;103434.97;5050755;28;20063;-69
2023/01/22 04:36:24;;;;;;;22.27;11.30;;;;;;;8.52;51.02;103432.06;5052614;28;20648;-69
2023/01/22 04:38:49;;;;;;;18.57;10.80;;;;;;;8.60;51.51;103433.25;5038157;28;20033;-69
2023/01/22 04:41:14;;;;;;;20.37;11.30;;;;;;;8.50;51.81;103428.50;5038010;28;20443;-69
2023/01/22 04:43:40;;;;;;;18.07;10.80;;;;;;;7.91;51.30;103427.78;5047267;28;20029;-69
2023/01/22 04:46:05;;;;;;;20.47;9.90;;;;;;;7.93;51.76;103421.81;5052575;28;20033;-69
2023/01/22 04:48:31;;;;;;;17.90;9.80;;;;;;;8.08;51.33;103418.09;5050378;28;20521;-69
2023/01/22 04:50:56;;;;;;;18.53;10.43;;;;;;;7.85;52.51;103415.38;5048055;28;20056;-69
2023/01/22 04:53:21;;;;;;;19.80;10.20;;;;;;;8.27;51.76;103418.00;5040618;28;20028;-69
2023/01/22 04:55:47;;;;;;;17.80;10.07;;;;;;;7.87;51.51;103424.16;5051783;28;20052;-69
2023/01/22 04:58:12;;;;;;;21.57;11.27;;;;;;;7.97;52.12;103421.09;5045900;28;20036;-69
2023/01/22 05:00:38;;;;;;;20.77;10.77;;;;;;;7.33;52.42;103423.53;5035051;28;20056;-69
2023/01/22 05:03:03;;;;;;;18.07;9.60;;;;;;;7.66;52.28;103434.53;5052454;28;20048;-69
2023/01/22 05:05:29;;;;;;;16.73;9.47;;;;;;;7.98;53.29;103422.91;5051648;28;20090;-69
2023/01/22 05:07:55;;;;;;;16.57;9.47;;;;;;;8.29;51.54;103431.97;5049244;28;20041;-69
2023/01/22 05:10:21;;;;;;;16.63;9.67;;;;;;;7.72;52.58;103433.91;5051789;28;20032;-69
2023/01/22 05:12:47;;;;;;;18.63;9.10;;;;;;;7.93;52.56;103429.63;5081721;28;20024;-69
2023/01/22 05:15:12;;;;;;;16.93;9.40;;;;;;;7.53;53.97;103420.09;5044319;28;20028;-69
2023/01/22 05:17:38;;;;;;;20.60;10.30;;;;;;;7.83;52.79;103432.66;5043487;28;20495;-69
2023/01/22 05:20:03;;;;;;;17.83;10.17;;;;;;;7.81;53.21;103426.50;5050810;28;20111;-69
2023/01/22 05:22:29;;;;;;;20.07;10.10;;;;;;;7.66;53.85;103428.44;5048045;28;20032;-69
2023/01/22 05:24:54;;;;;;;18.17;10.17;;;;;;;7.64;52.99;103425.78;5033878;28;20041;-69
2023/01/22 05:27:19;;;;;;;18.10;9.33;;;;;;;7.34;55.15;103425.31;5029842;28;20033;-69
2023/01/22 05:29:45;;;;;;;20.30;9.63;;;;;;;7.70;53.32;103425.16;5031209;28;20044;-69
2023/01/22 05:32:11;;;;;;;17.60;9.43;;;;;;;7.29;53.49;103426.00;5040849;28;20113;-69
2023/01/22 05:34:37;;;;;;;17.63;9.63;;;;;;;7.12;54.20;103433.03;5051751;28;20098;-69
2023/01/22 05:37:02;;;;;;;17.60;8.83;;;;;;;7.27;53.71;103435.44;5046182;28;20106;-69
2023/01/22 05:39:27;;;;;;;17.63;8.83;;;;;;;7.26;54.46;103436.25;5051376;28;20029;-69
2023/01/22 05:41:53;;;;;;;18.83;9.27;;;;;;;6.86;54.80;103439.63;5050270;28;20040;-69
2023/01/22 05:44:18;;;;;;;18.73;9.43;;;;;;;7.38;54.96;103427.22;5050135;28;20033;-69
2023/01/22 05:46:44;;;;;;;14.80;8.47;;;;;;;7.54;54.80;103429.69;5047348;28;20621;-69
2023/01/22 05:49:09;;;;;;;17.73;9.17;;;;;;;7.73;54.05;103435.69;5049265;28;20032;-69
2023/01/22 05:51:34;;;;;;;16.87;9.00;;;;;;;7.20;55.19;103435.97;5044003;28;20116;-69
2023/01/22 05:54:00;;;;;;;15.53;8.10;;;;;;;7.04;55.66;103433.50;5034310;28;20025;-69
2023/01/22 05:56:26;;;;;;;15.73;8.23;;;;;;;7.92;53.56;103438.25;5047716;28;20017;-68
2023/01/22 05:58:51;;;;;;;15.53;8.37;;;;;;;7.81;54.45;103439.50;5030647;28;20030;-69
2023/01/22 06:01:17;;;;;;;17.93;8.07;;;;;;;6.59;56.04;103447.91;5037774;28;20142;-69
2023/01/22 06:03:42;;;;;;;17.47;8.73;;;;;;;6.66;58.75;103445.56;5049303;28;20100;-69
2023/01/22 06:06:13;;;;;;;21.00;8.60;;;;;;;7.34;56.11;103446.13;5049598;28;20049;-69
2023/01/22 06:08:38;;;;;;;16.93;8.47;;;;;;;7.68;55.47;103447.59;5048955;28;20036;-69
2023/01/22 06:11:05;;;;;;;17.70;8.30;;;;;;;8.10;53.39;103447.69;5035056;28;20403;-69
2023/01/22 06:13:31;;;;;;;15.90;7.83;;;;;;;7.82;53.89;103450.00;5035582;28;20496;-68
2023/01/22 06:15:57;;;;;;;17.27;8.37;;;;;;;8.12;54.38;103448.66;5040241;28;20476;-69
2023/01/22 06:18:24;;;;;;;16.33;8.33;;;;;;;7.42;55.45;103447.38;5077369;28;20132;-69
2023/01/22 06:20:49;;;;;;;17.63;7.83;;;;;;;8.06;53.96;103462.28;5042968;28;20025;-69
2023/01/22 06:23:15;;;;;;;16.90;7.60;;;;;;;7.92;53.62;103463.41;5048035;28;20392;-69
2023/01/22 06:25:41;;;;;;;17.23;8.17;;;;;;;7.46;55.37;103457.97;5048399;28;20049;-69
2023/01/22 06:28:06;;;;;;;19.43;8.50;;;;;;;8.09;53.52;103461.50;5047413;28;20086;-69
2023/01/22 06:30:32;;;;;;;13.80;7.77;;;;;;;7.72;54.88;103465.13;5046378;28;20558;-69
2023/01/22 06:32:57;;;;;;;18.50;7.67;;;;;;;7.97;53.49;103470.59;5029154;28;20029;-68
2023/01/22 06:35:23;;;;;;;13.17;7.17;;;;;;;7.79;54.23;103469.81;5030321;28;20029;-69
2023/01/22 06:37:48;;;;;;;18.67;8.87;;;;;;;6.88;56.68;103465.69;5043837;28;20025;-69
2023/01/22 06:40:14;;;;;;;19.40;8.53;;;;;;;8.19;53.52;103448.06;5037841;28;20029;-69
2023/01/22 06:42:40;;;;;;;16.47;7.60;;;;;;;7.94;54.11;103452.25;5046531;28;20032;-69
2023/01/22 06:45:06;;;;;;;15.00;8.20;;;;;;;8.28;53.14;103456.28;5035360;28;20523;-69
2023/01/22 06:47:32;;;;;;;16.10;7.90;;;;;;;8.60;51.87;103448.91;5041983;28;20286;-69
2023/01/22 06:49:57;;;;;;;18.37;8.10;;;;;;;8.32;52.90;103457.28;5042071;28;20025;-69
2023/01/22 06:52:23;;;;;;;17.80;7.97;;;;;;;8.47;52.11;103444.00;5043050;28;20564;-69
2023/01/22 06:54:48;;;;;;;15.50;8.23;;;;;;;7.62;53.81;103445.63;5048300;28;20024;-69
2023/01/22 06:57:14;;;;;;;18.67;7.80;;;;;;;7.47;55.08;103438.94;5050202;28;20043;-68
2023/01/22 06:59:39;;;;;;;15.60;7.37;;;;;;;7.94;54.12;103441.81;5048305;28;20033;-69
2023/01/22 07:02:05;;;;;;;12.63;7.30;;;;;;;7.69;54.08;103439.84;5049027;28;20025;-69
2023/01/22 07:04:30;;;;;;;15.73;7.30;;;;;;;7.76;55.13;103447.13;5044620;28;20527;-69
2023/01/22 07:06:55;;;;;;;16.87;7.90;;;;;;;8.45;52.69;103446.56;5029987;28;20034;-68
2023/01/22 07:09:21;;;;;;;35.73;10.03;;;;;;;7.94;53.91;103446.13;5028688;28;20127;-68
2023/01/22 07:11:46;;;;;;;16.43;7.37;;;;;;;7.71;54.41;103437.34;5030544;28;20025;-69
2023/01/22 07:14:12;;;;;;;15.37;7.60;;;;;;;7.76;53.17;103441.94;5027953;28;20456;-69
2023/01/22 07:16:37;;;;;;;15.60;8.17;;;;;;;7.69;52.94;103441.59;5029016;28;20532;-69
2023/01/22 07:19:02;;;;;;;19.77;7.60;;;;;;;7.06;54.90;103455.25;5028522;28;20021;-69
2023/01/22 07:21:29;;;;;;;17.20;8.47;;;;;;;8.29;52.53;103447.59;5040267;28;20366;-68
2023/01/22 07:23:54;;;;;;;16.53;8.17;;;;;;;7.27;53.89;103452.78;5030899;28;20024;-69
2023/01/22 07:26:20;;;;;;;15.73;7.93;;;;;;;7.47;53.18;103443.22;5049787;28;20033;-69
2023/01/22 07:28:45;;;;;;;19.17;8.30;;;;;;;7.76;52.73;103444.53;5047601;28;20029;-68
2023/01/22 07:31:11;;;;;;;17.43;7.73;;;;;;;7.89;52.50;103447.66;5047943;28;20403;-69
2023/01/22 07:33:36;;;;;;;19.87;7.43;;;;;;;8.23;51.92;103455.19;5048457;28;20017;-69
2023/01/22 07:36:02;;;;;;;16.20;7.80;;;;;;;8.51;50.80;103456.34;5049422;28;20056;-69
2023/01/22 07:38:28;;;;;;;15.20;7.20;;;;;;;7.81;52.86;103465.56;5047866;28;20408;-71
2023/01/22 07:40:58;;;;;;;13.70;7.13;;;;;;;7.18;53.76;103461.03;5048048;28;20025;-71
2023/01/22 07:43:24;;;;;;;12.00;6.87;;;;;;;7.45;54.19;103461.38;5046900;28;20025;-71
2023/01/22 07:45:49;;;;;;;12.53;7.03;;;;;;;6.89;54.28;103473.56;5048420;28;20644;-71
2023/01/22 07:48:15;;;;;;;12.17;6.80;;;;;;;7.53;54.47;103464.34;5049677;28;20526;-71
2023/01/22 07:50:40;;;;;;;12.87;7.47;;;;;;;7.27;52.53;103470.97;5046639;28;20024;-71
2023/01/22 07:53:07;;;;;;;13.33;7.53;;;;;;;7.21;54.14;103476.78;5030849;28;20022;-71
2023/01/22 07:55:32;;;;;;;14.00;7.43;;;;;;;8.14;52.06;103475.63;5030474;28;20036;-71
2023/01/22 07:58:00;;;;;;;17.03;7.37;;;;;;;7.52;52.05;103470.38;5037708;28;20108;-71
2023/01/22 08:00:25;;;;;;;12.83;6.50;;;;;;;7.18;54.04;103473.16;5050537;28;20086;-71
2023/01/22 08:02:51;;;;;;;12.33;6.23;;;;;;;7.06;54.16;103481.25;5039669;28;20037;-71
2023/01/22 08:05:16;;;;;;;15.97;7.00;;;;;;;8.22;51.53;103484.66;5041831;28;20108;-71
2023/01/22 08:07:42;;;;;;;14.60;6.77;;;;;;;7.60;52.75;103479.41;5031681;28;20485;-71
2023/01/22 08:10:08;;;;;;;7.63;4.83;;;;;;;7.58;52.73;103470.66;5050684;28;20064;-71
2023/01/22 08:12:36;;;;;;;14.67;6.27;;;;;;;7.71;52.34;103482.50;5051007;28;20052;-71
2023/01/22 08:15:01;;;;;;;12.87;6.80;;;;;;;7.26;52.60;103492.59;5051352;28;20389;-71
2023/01/22 08:17:27;;;;;;;11.87;6.13;;;;;;;7.24;53.52;103495.13;5050220;28;20029;-72
2023/01/22 08:19:52;;;;;;;13.30;6.43;;;;;;;7.71;53.21;103494.63;5042491;28;20419;-69
2023/01/22 08:22:18;;;;;;;13.43;6.63;;;;;;;7.46;52.91;103502.22;5064935;28;20040;-71
2023/01/22 08:24:43;;;;;;;14.43;7.60;;;;;;;6.90;54.69;103501.34;5033582;28;20281;-71
2023/01/22 08:27:08;;;;;;;13.30;6.70;;;;;;;7.12;55.18;103502.38;5050639;28;20048;-71
2023/01/22 08:29:34;;;;;;;13.37;6.60;;;;;;;6.92;53.79;103504.00;5052639;28;20036;-69
2023/01/22 08:31:59;;;;;;;12.90;6.37;;;;;;;7.60;53.89;103502.84;5050092;28;20048;-69
2023/01/22 08:34:24;;;;;;;12.87;7.33;;;;;;;6.60;55.00;103506.84;5052690;28;20037;-69
2023/01/22 08:36:50;;;;;;;15.97;7.27;;;;;;;7.29;54.63;103511.88;5041674;28;20465;-69
2023/01/22 08:39:15;;;;;;;14.23;6.83;;;;;;;7.95;52.09;103508.72;5050154;28;20404;-72
2023/01/22 08:41:41;;;;;;;13.50;6.70;;;;;;;6.54;56.11;103511.75;5051149;28;20034;-71
2023/01/22 08:44:13;;;;;;;14.83;6.10;;;;;;;6.52;55.89;103513.38;5048017;28;20466;-71
2023/01/22 08:46:41;;;;;;;14.18;7.03;;;;;;;6.97;54.96;103512.94;5046831;28;20021;-71
2023/01/22 08:49:07;;;;;;;10.17;6.70;;;;;;;7.30;53.18;103512.75;5050522;28;20104;-71
2023/01/22 08:51:33;;;;;;;11.47;6.83;;;;;;;7.16;53.54;103498.19;5050240;28;20511;-71
2023/01/22 08:53:58;;;;;;;9.13;6.07;;;;;;;7.40;52.82;103506.25;5050553;28;20120;-71
2023/01/22 08:56:24;;;;;;;13.70;7.97;;;;;;;6.99;54.70;103511.28;5048185;28;20112;-71
2023/01/22 08:58:50;;;;;;;14.20;7.17;;;;;;;6.88;54.39;103513.41;5082508;28;20442;-72
2023/01/22 09:01:17;;;;;;;11.50;6.20;;;;;;;7.37;52.68;103509.59;5044520;28;21133;-71
2023/01/22 09:03:43;;;;;;;10.97;6.40;;;;;;;6.92;53.82;103515.34;5051519;28;20044;-72
2023/01/22 09:06:09;;;;;;;10.10;5.97;;;;;;;6.82;54.09;103522.59;5043138;28;20049;-69
2023/01/22 09:08:35;;;;;;;9.97;6.30;;;;;;;7.62;52.06;103516.81;5049969;28;20029;-71
2023/01/22 09:11:03;;;;;;;13.03;6.33;;;;;;;7.74;52.83;103505.16;5051335;28;20075;-71
2023/01/22 09:13:28;;;;;;;14.37;7.00;;;;;;;7.63;52.40;103515.97;5052512;28;20031;-71
2023/01/22 09:15:57;;;;;;;14.10;8.00;;;;;;;7.36;51.99;103517.34;5050508;28;20021;-72
2023/01/22 09:18:23;;;;;;;18.80;8.03;;;;;;;7.11;53.88;103524.00;5050651;28;20091;-71
2023/01/22 09:20:48;;;;;;;12.00;6.63;;;;;;;6.92;54.10;103522.22;5048077;28;20403;-72
2023/01/22 09:23:14;;;;;;;13.83;7.17;;;;;;;6.73;54.95;103518.75;5038458;28;20196;-71
2023/01/22 09:25:40;;;;;;;16.00;7.73;;;;;;;6.43;55.00;103518.13;5074772;28;20021;-71
2023/01/22 09:28:07;;;;;;;13.93;7.10;;;;;;;7.61;52.62;103517.63;5037289;28;20088;-72
2023/01/22 09:30:34;;;;;;;10.43;7.07;;;;;;;7.32;52.00;103525.81;5032428;28;20037;-71
2023/01/22 09:33:00;;;;;;;11.87;6.33;;;;;;;7.37;53.45;103527.81;5051141;28;20035;-72
2023/01/22 09:35:27;;;;;;;14.37;7.47;;;;;;;7.48;53.13;103530.91;5083440;28;20029;-72
2023/01/22 09:37:53;;;;;;;14.07;7.33;;;;;;;7.01;53.95;103545.19;5052389;28;20029;-72
2023/01/22 09:40:24;;;;;;;9.77;6.93;;;;;;;7.37;53.86;103542.53;5051952;28;20536;-72
2023/01/22 09:42:53;;;;;;;8.83;7.03;;;;;;;7.13;54.07;103543.19;5043967;28;20465;-72
2023/01/22 09:45:23;;;;;;;9.47;6.70;;;;;;;6.59;54.98;103540.56;5050053;28;20049;-69
2023/01/22 09:47:53;;;;;;;13.07;7.00;;;;;;;7.07;53.40;103540.28;5049345;28;20103;-69
2023/01/22 09:50:25;;;;;;;13.47;6.93;;;;;;;7.94;52.23;103534.69;5050882;28;20031;-69
2023/01/22 09:52:53;;;;;;;12.32;7.03;;;;;;;6.62;54.77;103536.41;5033104;28;20021;-70
2023/01/22 09:55:23;;;;;;;12.33;7.20;;;;;;;7.17;53.86;103546.81;5042390;28;20488;-72
2023/01/22 09:57:52;;;;;;;11.70;8.07;;;;;;;7.79;52.63;103529.72;5047039;28;20029;-73
2023/01/22 10:00:30;;;;;;;11.07;6.40;;;;;;;7.01;54.20;103529.59;5051826;28;20044;-72
2023/01/22 10:03:09;;;;;;;13.73;8.37;;;;;;;7.25;53.66;103535.97;5040850;28;20083;-71
2023/01/22 10:05:38;;;;;;;11.43;7.30;;;;;;;7.74;52.72;103532.09;5044330;28;20053;-73
2023/01/22 10:08:16;;;;;;;14.93;8.60;;;;;;;8.60;50.43;103528.81;5036409;28;20497;-70
2023/01/22 10:10:42;;;;;;;11.77;8.00;;;;;;;7.33;52.31;103527.59;5035429;28;20371;-72
2023/01/22 10:13:14;;;;;;;12.37;6.63;;;;;;;6.72;54.19;103536.88;5051260;28;20036;-72
2023/01/22 10:15:40;;;;;;;11.52;6.68;;;;;;;7.66;52.34;103527.38;5033347;28;20041;-72
2023/01/22 10:18:30;;;;;;;10.57;6.80;;;;;;;8.00;52.45;103524.53;5040281;28;20021;-72
2023/01/22 10:20:59;;;;;;;8.63;6.47;;;;;;;6.57;54.29;103530.09;5040717;28;20071;-72
2023/01/22 10:23:25;;;;;;;11.40;6.60;;;;;;;7.18;54.12;103528.66;5050026;28;20801;-72
2023/01/22 10:26:03;;;;;;;12.23;7.10;;;;;;;7.13;54.98;103530.19;5048826;28;20021;-72
2023/01/22 10:28:29;;;;;;;10.60;6.50;;;;;;;7.52;53.17;103522.41;5041940;28;20427;-73
2023/01/22 10:30:57;;;;;;;11.43;6.27;;;;;;;7.61;52.56;103525.44;5029705;28;20029;-73
2023/01/22 10:33:25;;;;;;;12.50;6.10;;;;;;;7.07;54.37;103524.66;5028391;28;20163;-73
2023/01/22 10:35:55;;;;;;;14.40;6.43;;;;;;;6.89;55.92;103525.56;5045966;28;20100;-73
2023/01/22 10:38:25;;;;;;;10.63;6.23;;;;;;;7.78;52.83;103512.28;5037033;28;20035;-73
2023/01/22 10:40:56;;;;;;;7.37;5.57;;;;;;;7.33;53.38;103519.81;5050844;28;20029;-71
2023/01/22 10:43:32;;;;;;;11.90;6.17;;;;;;;7.63;53.42;103521.19;5048856;28;20548;-70
2023/01/22 10:46:16;;;;;;;11.83;6.40;;;;;;;7.09;54.76;103536.06;5048561;28;20017;-70
2023/01/22 10:48:42;;;;;;;11.83;6.20;;;;;;;7.86;52.08;103525.63;5037278;28;20424;-70
2023/01/22 10:51:26;;;;;;;11.03;6.53;;;;;;;7.73;53.80;103526.81;5029537;28;20022;-72
2023/01/22 10:53:54;;;;;;;10.70;5.93;;;;;;;7.18;54.32;103530.38;5030128;28;20032;-73
2023/01/22 10:56:31;;;;;;;10.77;5.83;;;;;;;6.77;56.29;103540.56;5045407;28;20424;-72
2023/01/22 10:58:58;;;;;;;10.90;5.00;;;;;;;7.08;55.08;103542.06;5044892;28;20035;-72
2023/01/22 11:01:31;;;;;;;12.30;6.23;;;;;;;7.13;53.26;103535.38;5047974;28;20071;-73
2023/01/22 11:03:57;;;;;;;7.13;4.70;;;;;;;7.20;55.15;103531.31;5049145;28;20109;-72
2023/01/22 11:06:36;;;;;;;11.00;5.20;;;;;;;7.57;54.44;103520.00;5047774;28;20045;-72
2023/01/22 11:09:11;;;;;;;10.60;5.17;;;;;;;7.44;55.68;103515.97;5049605;28;20507;-73
2023/01/22 11:11:49;;;;;;;10.63;4.90;;;;;;;7.50;54.08;103511.06;5050842;28;20031;-73
2023/01/22 11:14:21;;;;;;;8.27;5.27;;;;;;;7.78;53.52;103507.09;5049749;28;20246;-73
2023/01/22 11:16:50;;;;;;;9.50;4.57;;;;;;;7.74;54.74;103512.97;5050110;28;20017;-73
2023/01/22 11:19:20;;;;;;;10.03;5.50;;;;;;;6.88;56.09;103516.00;5047709;28;20041;-73
2023/01/22 11:21:51;;;;;;;10.60;5.80;;;;;;;7.56;54.73;103511.31;5048209;28;20082;-72
2023/01/22 11:24:41;;;;;;;14.00;6.10;;;;;;;7.71;54.16;103510.25;5048643;28;20115;-72
2023/01/22 11:27:21;;;;;;;14.43;7.03;;;;;;;8.31;52.43;103511.13;5050150;28;20527;-73
2023/01/22 11:29:53;;;;;;;11.10;7.43;;;;;;;8.49;51.53;103504.94;5049294;28;20493;-73
2023/01/22 11:32:36;;;;;;;13.43;6.87;;;;;;;7.95;52.89;103503.53;5052477;28;20033;-73